sensor_id;sensor_type;location;lat;lon;timestamp;P1;durP1;ratioP1;P2;durP2;ratioP2
25467;SDS011;13384;24.794;110.498;2022-08-19T00:00:07;5.03;;;4.53;;
25467;SDS011;13384;24.794;110.498;2022-08-19T00:02:42;7.55;;;5.40;;
25467;SDS011;13384;24.794;110.498;2022-08-19T00:05:19;7.60;;;5.53;;
25467;SDS011;13384;24.794;110.498;2022-08-19T00:07:51;6.68;;;4.97;;
25467;SDS011;13384;24.794;110.498;2022-08-19T00:10:24;10.63;;;5.68;;
25467;SDS011;13384;24.794;110.498;2022-08-19T00:12:56;10.50;;;5.22;;
25467;SDS011;13384;24.794;110.498;2022-08-19T00:15:27;8.95;;;5.50;;
25467;SDS011;13384;24.794;110.498;2022-08-19T00:17:59;10.13;;;5.00;;
25467;SDS011;13384;24.794;110.498;2022-08-19T00:20:30;5.32;;;4.55;;
25467;SDS011;13384;24.794;110.498;2022-08-19T00:23:01;5.03;;;4.10;;
25467;SDS011;13384;24.794;110.498;2022-08-19T00:25:32;9.77;;;4.07;;
25467;SDS011;13384;24.794;110.498;2022-08-19T00:28:26;5.87;;;3.53;;
25467;SDS011;13384;24.794;110.498;2022-08-19T00:30:57;8.35;;;3.90;;
25467;SDS011;13384;24.794;110.498;2022-08-19T00:33:29;14.75;;;4.32;;
25467;SDS011;13384;24.794;110.498;2022-08-19T00:36:05;39.60;;;7.30;;
25467;SDS011;13384;24.794;110.498;2022-08-19T00:38:39;30.85;;;6.05;;
25467;SDS011;13384;24.794;110.498;2022-08-19T00:41:13;17.63;;;5.55;;
25467;SDS011;13384;24.794;110.498;2022-08-19T00:44:07;33.70;;;7.35;;
25467;SDS011;13384;24.794;110.498;2022-08-19T00:46:44;56.03;;;8.63;;
25467;SDS011;13384;24.794;110.498;2022-08-19T00:49:35;54.78;;;9.77;;
25467;SDS011;13384;24.794;110.498;2022-08-19T00:52:32;52.80;;;9.05;;
25467;SDS011;13384;24.794;110.498;2022-08-19T00:55:07;59.10;;;9.98;;
25467;SDS011;13384;24.794;110.498;2022-08-19T00:57:42;59.50;;;10.35;;
25467;SDS011;13384;24.794;110.498;2022-08-19T01:00:22;42.60;;;9.70;;
25467;SDS011;13384;24.794;110.498;2022-08-19T01:02:55;35.40;;;7.78;;
25467;SDS011;13384;24.794;110.498;2022-08-19T01:05:27;56.78;;;9.63;;
25467;SDS011;13384;24.794;110.498;2022-08-19T01:07:59;38.53;;;8.13;;
25467;SDS011;13384;24.794;110.498;2022-08-19T01:10:43;30.88;;;8.02;;
25467;SDS011;13384;24.794;110.498;2022-08-19T01:13:21;33.75;;;6.15;;
25467;SDS011;13384;24.794;110.498;2022-08-19T01:16:17;19.67;;;6.65;;
25467;SDS011;13384;24.794;110.498;2022-08-19T01:18:52;30.95;;;8.35;;
25467;SDS011;13384;24.794;110.498;2022-08-19T01:24:02;33.65;;;7.95;;
25467;SDS011;13384;24.794;110.498;2022-08-19T01:26:38;20.08;;;7.25;;
25467;SDS011;13384;24.794;110.498;2022-08-19T01:29:14;27.40;;;8.25;;
25467;SDS011;13384;24.794;110.498;2022-08-19T01:34:21;25.90;;;6.90;;
25467;SDS011;13384;24.794;110.498;2022-08-19T01:36:54;29.92;;;7.43;;
25467;SDS011;13384;24.794;110.498;2022-08-19T01:39:25;26.08;;;6.63;;
25467;SDS011;13384;24.794;110.498;2022-08-19T01:41:59;30.80;;;7.50;;
25467;SDS011;13384;24.794;110.498;2022-08-19T01:44:34;24.67;;;7.95;;
25467;SDS011;13384;24.794;110.498;2022-08-19T01:47:07;17.27;;;6.53;;
25467;SDS011;13384;24.794;110.498;2022-08-19T01:50:03;22.55;;;6.50;;
25467;SDS011;13384;24.794;110.498;2022-08-19T01:52:37;24.92;;;6.75;;
25467;SDS011;13384;24.794;110.498;2022-08-19T01:55:13;22.13;;;6.20;;
25467;SDS011;13384;24.794;110.498;2022-08-19T01:57:48;18.73;;;6.45;;
25467;SDS011;13384;24.794;110.498;2022-08-19T02:00:26;20.10;;;7.30;;
25467;SDS011;13384;24.794;110.498;2022-08-19T02:03:00;20.67;;;6.50;;
25467;SDS011;13384;24.794;110.498;2022-08-19T02:05:32;26.02;;;7.15;;
25467;SDS011;13384;24.794;110.498;2022-08-19T02:08:03;21.85;;;6.90;;
25467;SDS011;13384;24.794;110.498;2022-08-19T02:10:38;19.30;;;6.32;;
25467;SDS011;13384;24.794;110.498;2022-08-19T02:13:12;19.48;;;5.90;;
25467;SDS011;13384;24.794;110.498;2022-08-19T02:15:51;16.02;;;6.07;;
25467;SDS011;13384;24.794;110.498;2022-08-19T02:18:22;12.32;;;6.28;;
25467;SDS011;13384;24.794;110.498;2022-08-19T02:21:14;13.50;;;4.95;;
25467;SDS011;13384;24.794;110.498;2022-08-19T02:23:50;13.93;;;6.30;;
25467;SDS011;13384;24.794;110.498;2022-08-19T02:26:22;12.73;;;5.78;;
25467;SDS011;13384;24.794;110.498;2022-08-19T02:28:56;14.75;;;6.45;;
25467;SDS011;13384;24.794;110.498;2022-08-19T02:31:28;11.73;;;5.50;;
25467;SDS011;13384;24.794;110.498;2022-08-19T02:33:59;12.93;;;5.75;;
25467;SDS011;13384;24.794;110.498;2022-08-19T02:36:31;19.65;;;5.65;;
25467;SDS011;13384;24.794;110.498;2022-08-19T02:39:05;15.60;;;6.00;;
25467;SDS011;13384;24.794;110.498;2022-08-19T02:41:37;13.65;;;5.68;;
25467;SDS011;13384;24.794;110.498;2022-08-19T02:44:08;15.38;;;6.40;;
25467;SDS011;13384;24.794;110.498;2022-08-19T02:46:59;10.95;;;5.78;;
25467;SDS011;13384;24.794;110.498;2022-08-19T02:49:30;12.35;;;6.20;;
25467;SDS011;13384;24.794;110.498;2022-08-19T02:52:02;14.02;;;6.43;;
25467;SDS011;13384;24.794;110.498;2022-08-19T02:54:33;11.52;;;5.90;;
25467;SDS011;13384;24.794;110.498;2022-08-19T02:57:06;9.57;;;5.37;;
25467;SDS011;13384;24.794;110.498;2022-08-19T02:59:58;16.25;;;5.60;;
25467;SDS011;13384;24.794;110.498;2022-08-19T03:02:49;8.57;;;5.50;;
25467;SDS011;13384;24.794;110.498;2022-08-19T03:05:21;10.75;;;5.60;;
25467;SDS011;13384;24.794;110.498;2022-08-19T03:08:13;9.57;;;5.78;;
25467;SDS011;13384;24.794;110.498;2022-08-19T03:10:46;8.57;;;5.25;;
25467;SDS011;13384;24.794;110.498;2022-08-19T03:13:17;12.02;;;5.60;;
25467;SDS011;13384;24.794;110.498;2022-08-19T03:15:49;11.05;;;5.60;;
25467;SDS011;13384;24.794;110.498;2022-08-19T03:18:20;11.77;;;5.95;;
25467;SDS011;13384;24.794;110.498;2022-08-19T03:20:52;13.55;;;7.05;;
25467;SDS011;13384;24.794;110.498;2022-08-19T03:23:26;12.18;;;6.10;;
25467;SDS011;13384;24.794;110.498;2022-08-19T03:25:57;9.82;;;5.90;;
25467;SDS011;13384;24.794;110.498;2022-08-19T03:28:44;13.57;;;5.55;;
25467;SDS011;13384;24.794;110.498;2022-08-19T03:31:40;12.77;;;9.77;;
25467;SDS011;13384;24.794;110.498;2022-08-19T03:34:23;12.50;;;7.15;;
25467;SDS011;13384;24.794;110.498;2022-08-19T03:36:57;12.43;;;7.07;;
25467;SDS011;13384;24.794;110.498;2022-08-19T03:39:35;10.63;;;7.35;;
25467;SDS011;13384;24.794;110.498;2022-08-19T03:42:08;17.38;;;8.68;;
25467;SDS011;13384;24.794;110.498;2022-08-19T03:45:00;13.02;;;8.75;;
25467;SDS011;13384;24.794;110.498;2022-08-19T03:47:32;15.80;;;9.68;;
25467;SDS011;13384;24.794;110.498;2022-08-19T03:50:03;14.07;;;9.10;;
25467;SDS011;13384;24.794;110.498;2022-08-19T03:52:35;10.50;;;9.07;;
25467;SDS011;13384;24.794;110.498;2022-08-19T03:55:13;12.45;;;9.38;;
25467;SDS011;13384;24.794;110.498;2022-08-19T03:57:44;16.70;;;10.27;;
25467;SDS011;13384;24.794;110.498;2022-08-19T04:00:17;14.93;;;9.45;;
25467;SDS011;13384;24.794;110.498;2022-08-19T04:02:48;12.68;;;8.95;;
25467;SDS011;13384;24.794;110.498;2022-08-19T04:05:28;10.98;;;9.07;;
25467;SDS011;13384;24.794;110.498;2022-08-19T04:07:59;16.67;;;9.43;;
25467;SDS011;13384;24.794;110.498;2022-08-19T04:10:35;14.18;;;8.57;;
25467;SDS011;13384;24.794;110.498;2022-08-19T04:13:07;12.38;;;8.05;;
25467;SDS011;13384;24.794;110.498;2022-08-19T04:15:39;10.18;;;8.15;;
25467;SDS011;13384;24.794;110.498;2022-08-19T04:18:12;10.70;;;8.38;;
25467;SDS011;13384;24.794;110.498;2022-08-19T04:20:45;13.18;;;8.38;;
25467;SDS011;13384;24.794;110.498;2022-08-19T04:23:36;12.88;;;8.73;;
25467;SDS011;13384;24.794;110.498;2022-08-19T04:26:13;12.57;;;7.60;;
25467;SDS011;13384;24.794;110.498;2022-08-19T04:28:46;11.30;;;7.78;;
25467;SDS011;13384;24.794;110.498;2022-08-19T04:31:20;14.40;;;7.93;;
25467;SDS011;13384;24.794;110.498;2022-08-19T04:33:56;18.08;;;8.57;;
25467;SDS011;13384;24.794;110.498;2022-08-19T04:36:29;20.70;;;8.60;;
25467;SDS011;13384;24.794;110.498;2022-08-19T04:39:05;17.52;;;8.10;;
25467;SDS011;13384;24.794;110.498;2022-08-19T04:41:44;11.27;;;7.47;;
25467;SDS011;13384;24.794;110.498;2022-08-19T04:44:34;12.32;;;7.50;;
25467;SDS011;13384;24.794;110.498;2022-08-19T04:47:14;15.70;;;7.22;;
25467;SDS011;13384;24.794;110.498;2022-08-19T04:50:05;10.73;;;7.20;;
25467;SDS011;13384;24.794;110.498;2022-08-19T04:52:57;12.30;;;7.57;;
25467;SDS011;13384;24.794;110.498;2022-08-19T04:55:29;14.15;;;7.32;;
25467;SDS011;13384;24.794;110.498;2022-08-19T04:58:05;11.13;;;6.53;;
25467;SDS011;13384;24.794;110.498;2022-08-19T05:00:37;8.10;;;6.68;;
25467;SDS011;13384;24.794;110.498;2022-08-19T05:03:09;8.77;;;7.07;;
25467;SDS011;13384;24.794;110.498;2022-08-19T05:05:43;9.52;;;6.28;;
25467;SDS011;13384;24.794;110.498;2022-08-19T05:08:36;8.97;;;5.43;;
25467;SDS011;13384;24.794;110.498;2022-08-19T05:11:14;6.72;;;5.07;;
25467;SDS011;13384;24.794;110.498;2022-08-19T05:13:55;10.18;;;5.45;;
25467;SDS011;13384;24.794;110.498;2022-08-19T05:16:27;9.55;;;5.50;;
25467;SDS011;13384;24.794;110.498;2022-08-19T05:18:58;6.97;;;5.07;;
25467;SDS011;13384;24.794;110.498;2022-08-19T05:21:49;8.13;;;5.38;;
25467;SDS011;13384;24.794;110.498;2022-08-19T05:24:38;8.23;;;4.95;;
25467;SDS011;13384;24.794;110.498;2022-08-19T05:27:29;8.15;;;5.05;;
25467;SDS011;13384;24.794;110.498;2022-08-19T05:30:01;10.15;;;5.30;;
25467;SDS011;13384;24.794;110.498;2022-08-19T05:32:33;11.07;;;5.45;;
25467;SDS011;13384;24.794;110.498;2022-08-19T05:35:06;15.95;;;5.25;;
25467;SDS011;13384;24.794;110.498;2022-08-19T05:37:39;13.93;;;5.35;;
25467;SDS011;13384;24.794;110.498;2022-08-19T05:40:11;12.40;;;5.03;;
25467;SDS011;13384;24.794;110.498;2022-08-19T05:42:43;11.18;;;5.38;;
25467;SDS011;13384;24.794;110.498;2022-08-19T05:45:38;11.48;;;5.30;;
25467;SDS011;13384;24.794;110.498;2022-08-19T05:48:11;15.57;;;6.05;;
25467;SDS011;13384;24.794;110.498;2022-08-19T05:51:04;18.35;;;5.50;;
25467;SDS011;13384;24.794;110.498;2022-08-19T05:53:36;25.38;;;6.88;;
25467;SDS011;13384;24.794;110.498;2022-08-19T05:56:08;26.70;;;7.00;;
25467;SDS011;13384;24.794;110.498;2022-08-19T05:58:47;31.58;;;7.85;;
25467;SDS011;13384;24.794;110.498;2022-08-19T06:01:18;35.85;;;7.05;;
25467;SDS011;13384;24.794;110.498;2022-08-19T06:04:09;15.15;;;5.38;;
25467;SDS011;13384;24.794;110.498;2022-08-19T06:07:02;14.52;;;4.63;;
25467;SDS011;13384;24.794;110.498;2022-08-19T06:09:40;12.57;;;5.30;;
25467;SDS011;13384;24.794;110.498;2022-08-19T06:12:31;14.25;;;5.55;;
25467;SDS011;13384;24.794;110.498;2022-08-19T06:15:08;16.00;;;5.22;;
25467;SDS011;13384;24.794;110.498;2022-08-19T06:17:41;10.30;;;5.00;;
25467;SDS011;13384;24.794;110.498;2022-08-19T06:20:16;12.32;;;5.18;;
25467;SDS011;13384;24.794;110.498;2022-08-19T06:23:08;7.93;;;4.40;;
25467;SDS011;13384;24.794;110.498;2022-08-19T06:25:44;12.07;;;5.10;;
25467;SDS011;13384;24.794;110.498;2022-08-19T06:28:15;11.52;;;4.95;;
25467;SDS011;13384;24.794;110.498;2022-08-19T06:30:47;14.90;;;5.72;;
25467;SDS011;13384;24.794;110.498;2022-08-19T06:33:19;11.75;;;4.75;;
25467;SDS011;13384;24.794;110.498;2022-08-19T06:35:50;8.80;;;4.50;;
25467;SDS011;13384;24.794;110.498;2022-08-19T06:38:22;14.10;;;4.57;;
25467;SDS011;13384;24.794;110.498;2022-08-19T06:41:02;12.20;;;4.75;;
25467;SDS011;13384;24.794;110.498;2022-08-19T06:43:55;12.88;;;5.03;;
25467;SDS011;13384;24.794;110.498;2022-08-19T06:46:27;11.18;;;4.50;;
25467;SDS011;13384;24.794;110.498;2022-08-19T06:49:02;7.55;;;4.50;;
25467;SDS011;13384;24.794;110.498;2022-08-19T06:51:37;10.75;;;4.40;;
25467;SDS011;13384;24.794;110.498;2022-08-19T06:54:11;5.30;;;4.22;;
25467;SDS011;13384;24.794;110.498;2022-08-19T06:56:46;9.00;;;5.20;;
25467;SDS011;13384;24.794;110.498;2022-08-19T06:59:19;8.00;;;4.18;;
25467;SDS011;13384;24.794;110.498;2022-08-19T07:01:56;7.53;;;3.85;;
25467;SDS011;13384;24.794;110.498;2022-08-19T07:04:29;8.20;;;4.70;;
25467;SDS011;13384;24.794;110.498;2022-08-19T07:07:06;6.15;;;3.88;;
25467;SDS011;13384;24.794;110.498;2022-08-19T07:10:08;8.00;;;4.57;;
25467;SDS011;13384;24.794;110.498;2022-08-19T07:12:39;5.43;;;3.50;;
25467;SDS011;13384;24.794;110.498;2022-08-19T07:15:11;9.13;;;4.65;;
25467;SDS011;13384;24.794;110.498;2022-08-19T07:17:42;7.38;;;4.40;;
25467;SDS011;13384;24.794;110.498;2022-08-19T07:20:19;7.75;;;4.70;;
25467;SDS011;13384;24.794;110.498;2022-08-19T07:22:55;7.72;;;4.32;;
25467;SDS011;13384;24.794;110.498;2022-08-19T07:25:27;5.00;;;3.75;;
25467;SDS011;13384;24.794;110.498;2022-08-19T07:28:00;6.43;;;4.18;;
25467;SDS011;13384;24.794;110.498;2022-08-19T07:30:31;5.80;;;3.88;;
25467;SDS011;13384;24.794;110.498;2022-08-19T07:33:03;5.30;;;3.67;;
25467;SDS011;13384;24.794;110.498;2022-08-19T07:35:35;5.43;;;3.72;;
25467;SDS011;13384;24.794;110.498;2022-08-19T07:38:06;6.93;;;4.57;;
25467;SDS011;13384;24.794;110.498;2022-08-19T07:40:39;5.85;;;4.10;;
25467;SDS011;13384;24.794;110.498;2022-08-19T07:43:10;9.07;;;4.53;;
25467;SDS011;13384;24.794;110.498;2022-08-19T07:45:45;4.93;;;3.70;;
25467;SDS011;13384;24.794;110.498;2022-08-19T07:48:16;5.50;;;4.38;;
25467;SDS011;13384;24.794;110.498;2022-08-19T07:50:48;4.68;;;3.67;;
25467;SDS011;13384;24.794;110.498;2022-08-19T07:53:21;4.18;;;3.55;;
25467;SDS011;13384;24.794;110.498;2022-08-19T07:55:53;5.35;;;3.83;;
25467;SDS011;13384;24.794;110.498;2022-08-19T07:58:31;3.83;;;3.42;;
25467;SDS011;13384;24.794;110.498;2022-08-19T08:01:08;6.93;;;3.75;;
25467;SDS011;13384;24.794;110.498;2022-08-19T08:03:42;5.95;;;3.80;;
25467;SDS011;13384;24.794;110.498;2022-08-19T08:06:33;5.50;;;3.40;;
25467;SDS011;13384;24.794;110.498;2022-08-19T08:09:24;3.65;;;3.35;;
25467;SDS011;13384;24.794;110.498;2022-08-19T08:12:20;4.35;;;3.70;;
25467;SDS011;13384;24.794;110.498;2022-08-19T08:15:04;4.45;;;3.35;;
25467;SDS011;13384;24.794;110.498;2022-08-19T08:17:44;4.10;;;3.08;;
25467;SDS011;13384;24.794;110.498;2022-08-19T08:20:18;5.43;;;3.97;;
25467;SDS011;13384;24.794;110.498;2022-08-19T08:22:50;4.72;;;3.80;;
25467;SDS011;13384;24.794;110.498;2022-08-19T08:25:39;5.72;;;3.40;;
25467;SDS011;13384;24.794;110.498;2022-08-19T08:28:11;7.10;;;3.47;;
25467;SDS011;13384;24.794;110.498;2022-08-19T08:30:45;4.65;;;3.50;;
25467;SDS011;13384;24.794;110.498;2022-08-19T08:33:41;4.93;;;3.70;;
25467;SDS011;13384;24.794;110.498;2022-08-19T08:36:13;4.07;;;3.33;;
25467;SDS011;13384;24.794;110.498;2022-08-19T08:38:45;4.63;;;3.92;;
25467;SDS011;13384;24.794;110.498;2022-08-19T08:44:05;4.75;;;3.75;;
25467;SDS011;13384;24.794;110.498;2022-08-19T08:46:48;7.43;;;3.63;;
25467;SDS011;13384;24.794;110.498;2022-08-19T08:55:34;4.65;;;3.58;;
25467;SDS011;13384;24.794;110.498;2022-08-19T08:58:11;4.30;;;3.90;;
25467;SDS011;13384;24.794;110.498;2022-08-19T09:00:54;4.60;;;3.67;;
25467;SDS011;13384;24.794;110.498;2022-08-19T09:03:26;4.40;;;3.75;;
25467;SDS011;13384;24.794;110.498;2022-08-19T09:06:25;4.22;;;3.80;;
25467;SDS011;13384;24.794;110.498;2022-08-19T09:14:56;4.15;;;2.88;;
25467;SDS011;13384;24.794;110.498;2022-08-19T09:17:35;3.88;;;3.30;;
25467;SDS011;13384;24.794;110.498;2022-08-19T09:20:16;4.65;;;3.38;;
25467;SDS011;13384;24.794;110.498;2022-08-19T09:22:53;5.95;;;3.88;;
25467;SDS011;13384;24.794;110.498;2022-08-19T09:25:25;4.88;;;3.45;;
25467;SDS011;13384;24.794;110.498;2022-08-19T09:27:57;4.03;;;3.50;;
25467;SDS011;13384;24.794;110.498;2022-08-19T09:30:40;4.60;;;3.53;;
25467;SDS011;13384;24.794;110.498;2022-08-19T09:33:12;4.10;;;3.70;;
25467;SDS011;13384;24.794;110.498;2022-08-19T09:35:43;4.00;;;3.60;;
25467;SDS011;13384;24.794;110.498;2022-08-19T09:38:20;4.90;;;3.40;;
25467;SDS011;13384;24.794;110.498;2022-08-19T09:40:51;5.25;;;3.53;;
25467;SDS011;13384;24.794;110.498;2022-08-19T09:43:23;4.80;;;3.55;;
25467;SDS011;13384;24.794;110.498;2022-08-19T09:46:01;5.32;;;3.88;;
25467;SDS011;13384;24.794;110.498;2022-08-19T09:48:36;3.92;;;3.28;;
25467;SDS011;13384;24.794;110.498;2022-08-19T09:51:10;6.50;;;3.88;;
25467;SDS011;13384;24.794;110.498;2022-08-19T09:54:06;4.03;;;3.40;;
25467;SDS011;13384;24.794;110.498;2022-08-19T09:56:38;4.13;;;3.40;;
25467;SDS011;13384;24.794;110.498;2022-08-19T09:59:34;4.97;;;3.58;;
25467;SDS011;13384;24.794;110.498;2022-08-19T10:02:05;3.95;;;3.42;;
25467;SDS011;13384;24.794;110.498;2022-08-19T10:04:57;3.75;;;3.15;;
25467;SDS011;13384;24.794;110.498;2022-08-19T10:07:53;4.57;;;3.78;;
25467;SDS011;13384;24.794;110.498;2022-08-19T10:10:55;5.07;;;3.80;;
25467;SDS011;13384;24.794;110.498;2022-08-19T10:13:47;3.70;;;3.30;;
25467;SDS011;13384;24.794;110.498;2022-08-19T10:16:20;5.18;;;3.38;;
25467;SDS011;13384;24.794;110.498;2022-08-19T10:18:57;3.97;;;3.50;;
25467;SDS011;13384;24.794;110.498;2022-08-19T10:21:33;4.03;;;3.63;;
25467;SDS011;13384;24.794;110.498;2022-08-19T10:24:07;3.90;;;3.60;;
25467;SDS011;13384;24.794;110.498;2022-08-19T10:26:39;3.88;;;3.28;;
25467;SDS011;13384;24.794;110.498;2022-08-19T10:29:24;3.72;;;3.25;;
25467;SDS011;13384;24.794;110.498;2022-08-19T10:32:00;5.75;;;3.58;;
25467;SDS011;13384;24.794;110.498;2022-08-19T10:34:37;4.30;;;3.50;;
25467;SDS011;13384;24.794;110.498;2022-08-19T10:37:16;3.33;;;3.03;;
25467;SDS011;13384;24.794;110.498;2022-08-19T10:39:56;3.20;;;2.90;;
25467;SDS011;13384;24.794;110.498;2022-08-19T10:42:27;7.15;;;3.67;;
25467;SDS011;13384;24.794;110.498;2022-08-19T10:45:00;3.45;;;3.15;;
25467;SDS011;13384;24.794;110.498;2022-08-19T10:47:34;4.20;;;3.13;;
25467;SDS011;13384;24.794;110.498;2022-08-19T10:50:05;3.90;;;3.50;;
25467;SDS011;13384;24.794;110.498;2022-08-19T10:53:02;4.88;;;3.33;;
25467;SDS011;13384;24.794;110.498;2022-08-19T10:55:37;3.58;;;3.28;;
25467;SDS011;13384;24.794;110.498;2022-08-19T10:58:26;4.30;;;3.60;;
25467;SDS011;13384;24.794;110.498;2022-08-19T11:00:58;3.95;;;3.15;;
25467;SDS011;13384;24.794;110.498;2022-08-19T11:03:30;4.45;;;3.25;;
25467;SDS011;13384;24.794;110.498;2022-08-19T11:06:18;5.03;;;3.70;;
25467;SDS011;13384;24.794;110.498;2022-08-19T11:08:50;5.13;;;3.87;;
25467;SDS011;13384;24.794;110.498;2022-08-19T11:11:24;3.85;;;3.45;;
25467;SDS011;13384;24.794;110.498;2022-08-19T11:13:55;4.57;;;3.60;;
25467;SDS011;13384;24.794;110.498;2022-08-19T11:16:27;4.93;;;3.75;;
25467;SDS011;13384;24.794;110.498;2022-08-19T11:18:59;4.18;;;3.70;;
25467;SDS011;13384;24.794;110.498;2022-08-19T11:21:32;4.22;;;3.47;;
25467;SDS011;13384;24.794;110.498;2022-08-19T11:24:08;5.18;;;3.65;;
25467;SDS011;13384;24.794;110.498;2022-08-19T11:26:43;4.53;;;3.30;;
25467;SDS011;13384;24.794;110.498;2022-08-19T11:29:15;3.75;;;3.45;;
25467;SDS011;13384;24.794;110.498;2022-08-19T11:34:20;3.50;;;3.15;;
25467;SDS011;13384;24.794;110.498;2022-08-19T11:36:55;4.63;;;3.42;;
25467;SDS011;13384;24.794;110.498;2022-08-19T11:39:30;4.97;;;3.33;;
25467;SDS011;13384;24.794;110.498;2022-08-19T11:42:05;3.72;;;3.42;;
25467;SDS011;13384;24.794;110.498;2022-08-19T11:44:55;4.55;;;3.72;;
25467;SDS011;13384;24.794;110.498;2022-08-19T11:47:27;5.93;;;3.63;;
25467;SDS011;13384;24.794;110.498;2022-08-19T11:50:00;4.75;;;3.90;;
25467;SDS011;13384;24.794;110.498;2022-08-19T11:52:33;4.40;;;3.42;;
25467;SDS011;13384;24.794;110.498;2022-08-19T11:55:05;5.35;;;4.28;;
25467;SDS011;13384;24.794;110.498;2022-08-19T11:57:56;4.47;;;3.65;;
25467;SDS011;13384;24.794;110.498;2022-08-19T12:00:28;5.20;;;3.75;;
25467;SDS011;13384;24.794;110.498;2022-08-19T12:02:59;4.45;;;3.45;;
25467;SDS011;13384;24.794;110.498;2022-08-19T12:05:30;4.25;;;3.67;;
25467;SDS011;13384;24.794;110.498;2022-08-19T12:08:02;3.92;;;3.53;;
25467;SDS011;13384;24.794;110.498;2022-08-19T12:10:34;4.50;;;3.90;;
25467;SDS011;13384;24.794;110.498;2022-08-19T12:13:08;4.30;;;3.85;;
25467;SDS011;13384;24.794;110.498;2022-08-19T12:15:40;4.93;;;4.18;;
25467;SDS011;13384;24.794;110.498;2022-08-19T12:18:12;5.55;;;4.30;;
25467;SDS011;13384;24.794;110.498;2022-08-19T12:23:17;5.03;;;3.75;;
25467;SDS011;13384;24.794;110.498;2022-08-19T12:25:49;4.80;;;3.95;;
25467;SDS011;13384;24.794;110.498;2022-08-19T12:28:21;4.88;;;4.10;;
25467;SDS011;13384;24.794;110.498;2022-08-19T12:30:55;4.75;;;4.10;;
25467;SDS011;13384;24.794;110.498;2022-08-19T12:33:27;7.50;;;4.17;;
25467;SDS011;13384;24.794;110.498;2022-08-19T12:36:18;5.50;;;3.83;;
25467;SDS011;13384;24.794;110.498;2022-08-19T12:38:51;7.40;;;4.18;;
25467;SDS011;13384;24.794;110.498;2022-08-19T12:41:23;4.68;;;4.13;;
25467;SDS011;13384;24.794;110.498;2022-08-19T12:43:54;5.05;;;4.30;;
25467;SDS011;13384;24.794;110.498;2022-08-19T12:46:26;7.78;;;4.43;;
25467;SDS011;13384;24.794;110.498;2022-08-19T12:49:03;7.38;;;4.35;;
25467;SDS011;13384;24.794;110.498;2022-08-19T12:51:54;7.05;;;4.13;;
25467;SDS011;13384;24.794;110.498;2022-08-19T12:54:27;6.00;;;4.30;;
25467;SDS011;13384;24.794;110.498;2022-08-19T12:57:19;4.75;;;4.30;;
25467;SDS011;13384;24.794;110.498;2022-08-19T13:00:01;4.80;;;3.95;;
25467;SDS011;13384;24.794;110.498;2022-08-19T13:02:45;5.38;;;4.57;;
25467;SDS011;13384;24.794;110.498;2022-08-19T13:05:21;5.28;;;4.35;;
25467;SDS011;13384;24.794;110.498;2022-08-19T13:07:54;5.72;;;4.18;;
25467;SDS011;13384;24.794;110.498;2022-08-19T13:10:31;5.18;;;4.35;;
25467;SDS011;13384;24.794;110.498;2022-08-19T13:13:06;5.32;;;4.32;;
25467;SDS011;13384;24.794;110.498;2022-08-19T13:15:40;5.20;;;4.70;;
25467;SDS011;13384;24.794;110.498;2022-08-19T13:18:34;5.55;;;4.38;;
25467;SDS011;13384;24.794;110.498;2022-08-19T13:21:07;5.50;;;4.28;;
25467;SDS011;13384;24.794;110.498;2022-08-19T13:23:41;5.50;;;4.85;;
25467;SDS011;13384;24.794;110.498;2022-08-19T13:26:13;4.55;;;4.10;;
25467;SDS011;13384;24.794;110.498;2022-08-19T13:28:45;5.97;;;5.07;;
25467;SDS011;13384;24.794;110.498;2022-08-19T13:31:52;6.07;;;4.60;;
25467;SDS011;13384;24.794;110.498;2022-08-19T13:35:06;4.38;;;3.97;;
25467;SDS011;13384;24.794;110.498;2022-08-19T13:37:45;5.22;;;4.35;;
25467;SDS011;13384;24.794;110.498;2022-08-19T13:40:18;6.32;;;4.85;;
25467;SDS011;13384;24.794;110.498;2022-08-19T13:42:54;5.30;;;4.22;;
25467;SDS011;13384;24.794;110.498;2022-08-19T13:45:26;6.13;;;4.47;;
25467;SDS011;13384;24.794;110.498;2022-08-19T13:47:59;5.68;;;4.75;;
25467;SDS011;13384;24.794;110.498;2022-08-19T13:50:40;5.05;;;4.30;;
25467;SDS011;13384;24.794;110.498;2022-08-19T13:53:13;5.05;;;4.47;;
25467;SDS011;13384;24.794;110.498;2022-08-19T13:55:45;5.30;;;4.28;;
25467;SDS011;13384;24.794;110.498;2022-08-19T13:58:17;5.85;;;4.47;;
25467;SDS011;13384;24.794;110.498;2022-08-19T14:00:50;10.35;;;4.93;;
25467;SDS011;13384;24.794;110.498;2022-08-19T14:03:25;8.52;;;5.45;;
25467;SDS011;13384;24.794;110.498;2022-08-19T14:05:58;8.75;;;5.13;;
25467;SDS011;13384;24.794;110.498;2022-08-19T14:08:37;6.90;;;4.80;;
25467;SDS011;13384;24.794;110.498;2022-08-19T14:11:14;12.18;;;5.00;;
25467;SDS011;13384;24.794;110.498;2022-08-19T14:13:46;7.47;;;5.00;;
25467;SDS011;13384;24.794;110.498;2022-08-19T14:16:18;7.55;;;5.32;;
25467;SDS011;13384;24.794;110.498;2022-08-19T14:18:51;7.00;;;4.78;;
25467;SDS011;13384;24.794;110.498;2022-08-19T14:21:25;6.57;;;4.90;;
25467;SDS011;13384;24.794;110.498;2022-08-19T14:23:57;8.00;;;4.88;;
25467;SDS011;13384;24.794;110.498;2022-08-19T14:26:29;6.18;;;4.82;;
25467;SDS011;13384;24.794;110.498;2022-08-19T14:29:00;7.65;;;4.88;;
25467;SDS011;13384;24.794;110.498;2022-08-19T14:31:32;6.72;;;5.20;;
25467;SDS011;13384;24.794;110.498;2022-08-19T14:34:25;4.63;;;4.13;;
25467;SDS011;13384;24.794;110.498;2022-08-19T14:36:57;5.00;;;4.03;;
25467;SDS011;13384;24.794;110.498;2022-08-19T14:39:29;7.55;;;5.10;;
25467;SDS011;13384;24.794;110.498;2022-08-19T14:42:05;5.73;;;4.67;;
25467;SDS011;13384;24.794;110.498;2022-08-19T14:44:58;5.78;;;4.47;;
25467;SDS011;13384;24.794;110.498;2022-08-19T14:47:30;5.93;;;4.63;;
25467;SDS011;13384;24.794;110.498;2022-08-19T14:50:07;6.95;;;4.63;;
25467;SDS011;13384;24.794;110.498;2022-08-19T14:53:03;6.03;;;4.53;;
25467;SDS011;13384;24.794;110.498;2022-08-19T14:55:45;5.95;;;4.53;;
25467;SDS011;13384;24.794;110.498;2022-08-19T14:58:37;6.72;;;4.68;;
25467;SDS011;13384;24.794;110.498;2022-08-19T15:01:11;5.72;;;4.65;;
25467;SDS011;13384;24.794;110.498;2022-08-19T15:03:43;7.25;;;5.05;;
25467;SDS011;13384;24.794;110.498;2022-08-19T15:06:15;8.00;;;4.80;;
25467;SDS011;13384;24.794;110.498;2022-08-19T15:08:48;6.22;;;4.68;;
25467;SDS011;13384;24.794;110.498;2022-08-19T15:11:45;4.93;;;4.28;;
25467;SDS011;13384;24.794;110.498;2022-08-19T15:16:53;6.07;;;4.82;;
25467;SDS011;13384;24.794;110.498;2022-08-19T15:19:25;6.97;;;5.03;;
25467;SDS011;13384;24.794;110.498;2022-08-19T15:21:58;6.38;;;4.95;;
25467;SDS011;13384;24.794;110.498;2022-08-19T15:24:29;5.43;;;4.57;;
25467;SDS011;13384;24.794;110.498;2022-08-19T15:27:02;7.28;;;5.00;;
25467;SDS011;13384;24.794;110.498;2022-08-19T15:29:39;8.10;;;5.03;;
25467;SDS011;13384;24.794;110.498;2022-08-19T15:32:13;5.95;;;4.82;;
25467;SDS011;13384;24.794;110.498;2022-08-19T15:35:05;6.25;;;5.07;;
25467;SDS011;13384;24.794;110.498;2022-08-19T15:37:39;5.50;;;4.68;;
25467;SDS011;13384;24.794;110.498;2022-08-19T15:40:11;6.30;;;4.70;;